createdAt,value
2022-08-05T00:00:16.531Z,84.10
2022-08-05T00:02:50.577Z,85.50
2022-08-05T00:06:02.632Z,85.80
2022-08-05T00:08:32.836Z,86.40
2022-08-05T00:11:00.792Z,87.40
2022-08-05T00:13:39.273Z,87.90
2022-08-05T00:16:08.743Z,88.30
2022-08-05T00:18:38.000Z,88.70
2022-08-05T00:21:08.405Z,89.10
2022-08-05T00:23:46.431Z,89.40
2022-08-05T00:26:22.391Z,90.00
2022-08-05T00:28:50.914Z,90.40
2022-08-05T00:31:54.184Z,90.50
2022-08-05T00:34:53.628Z,91.30
2022-08-05T00:37:11.367Z,91.30
2022-08-05T00:39:44.471Z,92.10
2022-08-05T00:42:32.916Z,92.30
2022-08-05T00:45:00.804Z,92.60
2022-08-05T00:47:53.331Z,92.60
2022-08-05T00:50:16.465Z,93.10
2022-08-05T00:52:46.788Z,93.60
2022-08-05T00:55:14.925Z,93.70
2022-08-05T00:57:58.531Z,94.00
2022-08-05T01:00:27.757Z,94.60
2022-08-05T01:02:55.970Z,95.20
2022-08-05T01:05:23.851Z,95.80
2022-08-05T01:08:39.225Z,96.30
2022-08-05T01:10:52.229Z,97.00
2022-08-05T01:13:27.492Z,97.20
2022-08-05T01:16:15.314Z,97.30
2022-08-05T01:18:56.595Z,97.90
2022-08-05T01:21:37.795Z,98.30
2022-08-05T01:24:24.499Z,98.40
2022-08-05T01:27:32.307Z,98.50
2022-08-05T01:29:53.603Z,98.50
2022-08-05T01:32:24.495Z,98.70
2022-08-05T01:34:58.120Z,99.30
2022-08-05T01:37:28.688Z,99.30
2022-08-05T01:39:59.074Z,99.60
2022-08-05T01:42:27.954Z,99.90
2022-08-05T01:44:59.178Z,99.90
2022-08-05T01:47:38.894Z,99.90
2022-08-05T01:50:09.259Z,99.90
2022-08-05T01:52:45.083Z,99.90
2022-08-05T01:55:18.797Z,99.90
2022-08-05T01:58:10.636Z,99.90
2022-08-05T02:00:38.850Z,99.90
2022-08-05T02:03:24.333Z,99.90
2022-08-05T02:05:59.841Z,99.90
2022-08-05T02:08:31.655Z,99.90
2022-08-05T02:11:01.032Z,99.90
2022-08-05T02:13:36.484Z,99.90
2022-08-05T02:16:22.816Z,99.90
2022-08-05T02:18:51.991Z,99.90
2022-08-05T02:21:23.076Z,99.90
2022-08-05T02:23:52.703Z,99.90
2022-08-05T02:26:22.898Z,99.90
2022-08-05T02:28:55.919Z,99.90
2022-08-05T02:31:34.668Z,99.90
2022-08-05T02:34:05.911Z,99.90
2022-08-05T02:36:39.928Z,99.90
2022-08-05T02:39:10.251Z,99.90
2022-08-05T02:41:57.562Z,99.90
2022-08-05T02:44:27.372Z,99.90
2022-08-05T02:47:00.946Z,99.90
2022-08-05T02:49:36.893Z,99.90
2022-08-05T02:52:07.003Z,99.90
2022-08-05T02:54:37.395Z,99.90
2022-08-05T02:57:10.358Z,99.90
2022-08-05T02:59:56.290Z,99.90
2022-08-05T03:02:28.682Z,99.90
2022-08-05T03:04:58.923Z,99.90
2022-08-05T03:08:00.271Z,99.90
2022-08-05T03:10:24.520Z,99.90
2022-08-05T03:12:53.930Z,99.90
2022-08-05T03:15:23.613Z,99.90
2022-08-05T03:17:55.921Z,99.90
2022-08-05T03:20:25.439Z,99.90
2022-08-05T03:22:57.268Z,99.90
2022-08-05T03:25:32.442Z,99.90
2022-08-05T03:28:14.456Z,99.90
2022-08-05T03:30:47.627Z,99.90
2022-08-05T03:33:17.338Z,99.90
2022-08-05T03:35:46.313Z,99.90
2022-08-05T03:38:14.753Z,99.90
2022-08-05T03:40:45.396Z,99.90
2022-08-05T03:43:59.294Z,99.90
2022-08-05T03:46:03.319Z,99.90
2022-08-05T03:48:35.156Z,99.90
2022-08-05T03:52:38.008Z,99.90
2022-08-05T03:55:49.953Z,99.90
2022-08-05T03:56:47.114Z,99.90
2022-08-05T03:59:20.355Z,99.90
2022-08-05T04:01:50.832Z,99.90
2022-08-05T04:04:22.291Z,99.90
2022-08-05T04:06:54.665Z,99.90
2022-08-05T04:09:26.121Z,99.90
2022-08-05T04:11:56.390Z,99.90
2022-08-05T04:14:30.554Z,99.90
2022-08-05T04:16:59.651Z,99.90
2022-08-05T04:19:29.761Z,99.90
2022-08-05T04:22:08.670Z,99.90
2022-08-05T04:24:43.788Z,99.90
2022-08-05T04:27:13.542Z,99.90
2022-08-05T04:29:41.678Z,99.90
2022-08-05T04:32:10.366Z,99.90
2022-08-05T04:34:42.696Z,99.90
2022-08-05T04:37:11.344Z,99.90
2022-08-05T04:39:40.083Z,99.90
2022-08-05T04:42:09.112Z,99.90
2022-08-05T04:44:37.074Z,99.90
2022-08-05T04:47:09.848Z,99.90
2022-08-05T04:50:01.622Z,99.90
2022-08-05T04:52:28.355Z,99.90
2022-08-05T04:54:57.055Z,99.90
2022-08-05T04:57:28.965Z,99.90
2022-08-05T04:59:57.359Z,99.90
2022-08-05T05:02:37.045Z,99.90
2022-08-05T05:05:16.929Z,99.90
2022-08-05T05:07:56.608Z,99.90
2022-08-05T05:10:30.048Z,99.90
2022-08-05T05:12:58.015Z,99.90
2022-08-05T05:15:57.320Z,99.90
2022-08-05T05:18:14.763Z,99.90
2022-08-05T05:20:57.166Z,99.90
2022-08-05T05:23:26.524Z,99.90
2022-08-05T05:25:54.349Z,99.90
2022-08-05T05:28:22.168Z,99.90
2022-08-05T05:30:52.784Z,99.90
2022-08-05T05:33:23.230Z,99.90
2022-08-05T05:35:51.897Z,99.80
2022-08-05T05:38:26.946Z,98.70
2022-08-05T05:40:55.710Z,98.00
2022-08-05T05:43:56.536Z,96.70
2022-08-05T05:46:15.788Z,95.30
2022-08-05T05:48:44.614Z,95.30
2022-08-05T05:51:18.705Z,95.50
2022-08-05T05:53:58.099Z,94.60
2022-08-05T05:56:32.634Z,92.90
2022-08-05T05:59:03.072Z,92.20
2022-08-05T06:01:37.426Z,91.00
2022-08-05T06:04:06.291Z,89.10
2022-08-05T06:06:35.138Z,89.20
2022-08-05T06:09:04.921Z,86.70
2022-08-05T06:11:32.835Z,84.90
2022-08-05T06:14:00.927Z,82.90
2022-08-05T06:16:36.973Z,80.40
2022-08-05T06:19:07.922Z,81.40
2022-08-05T06:21:38.344Z,82.10
2022-08-05T06:24:11.459Z,83.20
2022-08-05T06:26:51.425Z,82.00
2022-08-05T06:29:23.714Z,80.10
2022-08-05T06:31:54.405Z,75.90
2022-08-05T06:34:22.232Z,74.30
2022-08-05T06:36:58.547Z,72.20
2022-08-05T06:39:28.286Z,71.50
2022-08-05T06:41:58.658Z,68.80
2022-08-05T06:44:27.033Z,67.00
2022-08-05T06:46:54.967Z,65.80
2022-08-05T06:50:01.371Z,65.80
2022-08-05T06:52:37.103Z,62.90
2022-08-05T06:55:02.494Z,63.60
2022-08-05T06:57:57.445Z,63.60
2022-08-05T07:00:24.832Z,63.10
2022-08-05T07:02:54.302Z,63.20
2022-08-05T07:05:36.930Z,63.60
2022-08-05T07:08:06.267Z,63.60
2022-08-05T07:10:52.977Z,62.50
2022-08-05T07:13:58.382Z,63.50
2022-08-05T07:18:01.835Z,62.20
2022-08-05T07:22:32.188Z,57.30
2022-08-05T07:25:55.069Z,55.90
2022-08-05T07:27:57.741Z,55.00
2022-08-05T07:30:32.101Z,56.20
2022-08-05T07:33:01.096Z,56.50
2022-08-05T07:36:01.484Z,57.20
2022-08-05T07:38:33.008Z,57.20
2022-08-05T07:42:07.317Z,57.40
2022-08-05T07:43:53.118Z,55.70
2022-08-05T07:46:25.987Z,56.00
2022-08-05T07:49:02.171Z,56.30
2022-08-05T07:51:37.325Z,57.10
2022-08-05T07:54:09.986Z,56.20
2022-08-05T07:57:01.345Z,56.00
2022-08-05T07:59:39.047Z,57.40
2022-08-05T08:02:15.899Z,55.50
2022-08-05T08:04:45.678Z,56.00
2022-08-05T08:07:13.833Z,54.00
2022-08-05T08:09:41.693Z,54.20
2022-08-05T08:12:29.677Z,55.20
2022-08-05T08:15:02.418Z,55.60
2022-08-05T08:17:31.218Z,56.90
2022-08-05T08:20:22.215Z,57.70
2022-08-05T08:22:51.577Z,56.00
2022-08-05T08:25:26.883Z,55.20
2022-08-05T08:28:18.254Z,52.80
2022-08-05T08:30:49.658Z,51.10
2022-08-05T08:33:19.096Z,49.20
2022-08-05T08:35:52.475Z,48.00
2022-08-05T08:38:35.544Z,47.70
2022-08-05T08:41:06.496Z,46.80
2022-08-05T08:45:20.173Z,44.50
2022-08-05T08:46:25.009Z,44.30
2022-08-05T08:49:07.487Z,44.40
2022-08-05T08:52:02.955Z,44.60
2022-08-05T08:54:32.068Z,44.30
2022-08-05T08:57:00.153Z,43.70
2022-08-05T08:59:33.844Z,44.10
2022-08-05T09:02:08.608Z,43.90
2022-08-05T09:04:57.867Z,43.70
2022-08-05T09:07:29.122Z,44.20
2022-08-05T09:10:07.644Z,44.10
2022-08-05T09:12:35.769Z,44.00
2022-08-05T09:15:05.830Z,43.80
2022-08-05T09:17:42.323Z,43.90
2022-08-05T09:20:11.759Z,42.90
2022-08-05T09:22:54.504Z,43.10
2022-08-05T09:26:00.818Z,43.60
2022-08-05T09:28:24.162Z,43.30
2022-08-05T09:30:56.117Z,42.30
2022-08-05T09:33:35.232Z,42.10
2022-08-05T09:36:11.814Z,41.60
2022-08-05T09:38:56.585Z,41.20
2022-08-05T09:41:25.002Z,40.80
2022-08-05T09:43:53.909Z,40.10
2022-08-05T09:46:28.331Z,40.70
2022-08-05T09:49:07.521Z,41.10
2022-08-05T09:51:48.842Z,40.90
2022-08-05T09:54:28.882Z,40.70
2022-08-05T09:57:01.117Z,41.40
2022-08-05T09:59:34.780Z,41.20
2022-08-05T10:02:05.312Z,40.30
2022-08-05T10:04:40.964Z,41.20
2022-08-05T10:07:20.152Z,41.30
2022-08-05T10:10:13.868Z,41.00
2022-08-05T10:12:49.652Z,40.30
2022-08-05T10:15:22.323Z,40.30
2022-08-05T10:18:10.804Z,39.80
2022-08-05T10:20:41.700Z,39.90
2022-08-05T10:23:34.180Z,39.80
2022-08-05T10:25:59.182Z,38.40
2022-08-05T10:28:30.370Z,39.30
2022-08-05T10:32:47.511Z,39.60
2022-08-05T10:33:54.335Z,39.80
2022-08-05T10:36:26.020Z,39.10
2022-08-05T10:39:00.197Z,39.60
2022-08-05T10:41:46.706Z,38.80
2022-08-05T10:44:17.862Z,40.20
2022-08-05T10:46:46.573Z,39.10
2022-08-05T10:49:27.188Z,38.70
2022-08-05T10:52:05.101Z,38.10
2022-08-05T10:54:56.232Z,38.00
2022-08-05T10:57:31.023Z,38.50
2022-08-05T11:00:18.205Z,38.20
2022-08-05T11:03:24.811Z,38.50
2022-08-05T11:06:08.468Z,38.30
2022-08-05T11:08:57.552Z,38.00
2022-08-05T11:11:44.675Z,37.90
2022-08-05T11:14:37.275Z,37.40
2022-08-05T11:17:59.689Z,37.30
2022-08-05T11:20:41.571Z,37.50
2022-08-05T11:23:49.834Z,37.70
2022-08-05T11:26:29.242Z,37.40
2022-08-05T11:29:11.617Z,38.00
2022-08-05T11:31:58.458Z,37.20
2022-08-05T11:34:39.259Z,37.10
2022-08-05T11:38:27.909Z,38.30
2022-08-05T11:40:00.621Z,37.60
2022-08-05T11:42:38.022Z,38.00
2022-08-05T11:45:26.923Z,38.20
2022-08-05T11:47:58.674Z,38.10
2022-08-05T11:50:26.906Z,37.10
2022-08-05T11:52:57.929Z,37.30
2022-08-05T11:55:32.286Z,38.50
2022-08-05T11:58:09.203Z,36.90
2022-08-05T12:00:41.644Z,36.60
2022-08-05T12:03:28.726Z,36.90
2022-08-05T12:06:01.055Z,36.90
2022-08-05T12:08:28.902Z,36.00
2022-08-05T12:11:00.387Z,36.00
2022-08-05T12:13:48.402Z,37.10
2022-08-05T12:16:25.472Z,36.10
2022-08-05T12:18:55.188Z,35.50
2022-08-05T12:21:24.236Z,37.00
2022-08-05T12:23:55.948Z,36.00
2022-08-05T12:26:24.582Z,37.00
2022-08-05T12:28:53.883Z,36.60
2022-08-05T12:31:33.496Z,36.10
2022-08-05T12:34:14.606Z,36.90
2022-08-05T12:36:48.887Z,36.60
2022-08-05T12:39:17.647Z,35.30
2022-08-05T12:41:46.321Z,35.90
2022-08-05T12:44:28.689Z,36.10
2022-08-05T12:47:02.834Z,36.10
2022-08-05T12:50:04.653Z,36.70
2022-08-05T12:52:33.972Z,36.00
2022-08-05T12:55:17.480Z,35.90
2022-08-05T12:58:51.430Z,35.70
2022-08-05T13:01:59.712Z,36.70
2022-08-05T13:03:32.571Z,36.70
2022-08-05T13:06:01.208Z,37.40
2022-08-05T13:08:29.924Z,37.00
2022-08-05T13:11:00.635Z,37.00
2022-08-05T13:14:04.875Z,36.60
2022-08-05T13:16:17.114Z,36.50
2022-08-05T13:18:53.046Z,36.60
2022-08-05T13:21:28.563Z,35.30
2022-08-05T13:24:08.939Z,35.20
2022-08-05T13:26:37.046Z,36.00
2022-08-05T13:29:05.382Z,36.30
2022-08-05T13:32:02.786Z,35.40
2022-08-05T13:34:25.972Z,36.00
2022-08-05T13:36:54.243Z,36.40
2022-08-05T13:40:12.994Z,36.00
2022-08-05T13:42:14.670Z,35.70
2022-08-05T13:44:45.342Z,35.50
2022-08-05T13:47:35.457Z,35.60
2022-08-05T13:50:04.624Z,36.10
2022-08-05T13:52:35.602Z,36.40
2022-08-05T13:55:08.036Z,36.60
2022-08-05T13:57:50.605Z,34.90
2022-08-05T14:00:19.636Z,36.10
2022-08-05T14:02:55.338Z,37.50
2022-08-05T14:05:47.929Z,36.60
2022-08-05T14:08:20.800Z,35.90
2022-08-05T14:10:49.630Z,36.80
2022-08-05T14:13:17.599Z,37.00
2022-08-05T14:16:08.395Z,36.80
2022-08-05T14:18:33.948Z,37.10
2022-08-05T14:22:07.360Z,36.90
2022-08-05T14:23:55.218Z,37.00
2022-08-05T14:26:37.040Z,37.20
2022-08-05T14:29:16.502Z,37.00
2022-08-05T14:32:02.830Z,37.90
2022-08-05T14:34:35.213Z,36.50
2022-08-05T14:37:04.830Z,38.20
2022-08-05T14:39:49.266Z,37.60
2022-08-05T14:42:20.618Z,38.40
2022-08-05T14:44:49.409Z,38.30
2022-08-05T14:48:02.971Z,38.80
2022-08-05T14:50:18.301Z,38.10
2022-08-05T14:52:57.875Z,39.20
2022-08-05T14:55:38.400Z,39.40
2022-08-05T14:58:10.664Z,39.60
2022-08-05T15:00:58.448Z,39.10
2022-08-05T15:03:33.086Z,39.20
2022-08-05T15:06:12.902Z,38.60
2022-08-05T15:08:58.090Z,38.70
2022-08-05T15:11:51.127Z,39.60
2022-08-05T15:14:33.572Z,39.20
2022-08-05T15:17:05.204Z,38.80
2022-08-05T15:19:37.879Z,38.10
2022-08-05T15:22:08.852Z,38.00
2022-08-05T15:24:39.590Z,38.00
2022-08-05T15:27:09.109Z,38.10
2022-08-05T15:29:42.010Z,38.40
2022-08-05T15:32:10.057Z,38.60
2022-08-05T15:34:37.919Z,39.40
2022-08-05T15:37:06.815Z,39.10
2022-08-05T15:41:01.109Z,39.60
2022-08-05T15:42:57.613Z,38.80
2022-08-05T15:45:23.113Z,38.30
2022-08-05T15:48:07.027Z,38.20
2022-08-05T15:50:34.941Z,38.70
2022-08-05T15:53:05.598Z,39.00
2022-08-05T15:56:04.239Z,38.60
2022-08-05T15:58:23.565Z,38.40
2022-08-05T16:01:11.632Z,38.00
2022-08-05T16:03:40.966Z,38.00
2022-08-05T16:06:11.492Z,38.90
2022-08-05T16:08:39.934Z,38.40
2022-08-05T16:11:10.777Z,38.00
2022-08-05T16:13:38.683Z,38.00
2022-08-05T16:16:07.016Z,39.00
2022-08-05T16:18:52.780Z,38.80
2022-08-05T16:21:58.721Z,38.40
2022-08-05T16:24:40.743Z,38.80
2022-08-05T16:26:58.435Z,39.00
2022-08-05T16:29:27.046Z,39.20
2022-08-05T16:31:59.143Z,39.70
2022-08-05T16:34:27.182Z,39.50
2022-08-05T16:36:55.379Z,39.50
2022-08-05T16:40:04.139Z,39.40
2022-08-05T16:42:18.594Z,39.30
2022-08-05T16:44:57.030Z,40.40
2022-08-05T16:47:36.348Z,40.70
2022-08-05T16:50:12.936Z,41.20
2022-08-05T16:52:45.277Z,41.60
2022-08-05T16:55:13.975Z,41.10
2022-08-05T16:57:53.557Z,40.90
2022-08-05T17:00:34.278Z,41.10
2022-08-05T17:03:03.686Z,41.60
2022-08-05T17:05:38.696Z,42.10
2022-08-05T17:08:07.474Z,42.70
2022-08-05T17:10:35.786Z,43.80
2022-08-05T17:13:16.732Z,44.30
2022-08-05T17:15:49.104Z,44.90
2022-08-05T17:18:20.787Z,45.10
2022-08-05T17:20:48.722Z,44.50
2022-08-05T17:24:03.166Z,44.80
2022-08-05T17:26:05.295Z,45.30
2022-08-05T17:28:36.124Z,45.50
2022-08-05T17:31:08.537Z,45.10
2022-08-05T17:33:52.621Z,44.70
2022-08-05T17:36:31.736Z,44.80
2022-08-05T17:39:03.118Z,45.30
2022-08-05T17:42:18.158Z,46.60
2022-08-05T17:44:26.627Z,47.40
2022-08-05T17:47:00.482Z,47.90
2022-08-05T17:49:28.634Z,48.30
2022-08-05T17:52:16.614Z,48.50
2022-08-05T17:54:44.693Z,48.90
2022-08-05T17:57:12.556Z,48.90
2022-08-05T17:59:41.787Z,48.90
2022-08-05T18:02:10.859Z,49.10
2022-08-05T18:04:42.233Z,49.10
2022-08-05T18:07:21.422Z,49.00
2022-08-05T18:09:59.594Z,48.80
2022-08-05T18:12:28.861Z,49.60
2022-08-05T18:14:58.068Z,49.10
2022-08-05T18:17:59.067Z,49.50
2022-08-05T18:20:15.157Z,49.90
2022-08-05T18:22:54.268Z,50.70
2022-08-05T18:25:22.814Z,51.60
2022-08-05T18:27:52.932Z,50.40
2022-08-05T18:30:22.126Z,49.10
2022-08-05T18:33:01.069Z,48.60
2022-08-05T18:36:01.234Z,47.90
2022-08-05T18:38:19.319Z,47.50
2022-08-05T18:41:56.636Z,47.10
2022-08-05T18:43:42.651Z,46.50
2022-08-05T18:46:12.481Z,46.20
2022-08-05T18:48:41.683Z,46.00
2022-08-05T18:52:06.301Z,46.40
2022-08-05T18:54:15.507Z,46.20
2022-08-05T18:56:51.190Z,46.80
2022-08-05T18:59:50.662Z,46.80
2022-08-05T19:02:11.263Z,46.60
2022-08-05T19:05:02.847Z,47.10
2022-08-05T19:07:46.340Z,47.30
2022-08-05T19:10:15.133Z,47.30
2022-08-05T19:12:43.455Z,47.80
2022-08-05T19:15:59.901Z,48.60
2022-08-05T19:18:09.343Z,48.40
2022-08-05T19:20:41.314Z,48.50
2022-08-05T19:24:03.861Z,48.70
2022-08-05T19:26:01.046Z,49.40
2022-08-05T19:28:30.531Z,50.10
2022-08-05T19:30:58.353Z,50.60
2022-08-05T19:33:35.472Z,50.90
2022-08-05T19:36:06.146Z,51.50
2022-08-05T19:38:35.913Z,51.80
2022-08-05T19:41:07.062Z,52.00
2022-08-05T19:44:06.517Z,52.30
2022-08-05T19:46:30.425Z,53.10
2022-08-05T19:49:01.064Z,53.00
2022-08-05T19:52:05.917Z,53.60
2022-08-05T19:54:26.912Z,52.80
2022-08-05T19:56:59.104Z,53.10
2022-08-05T19:59:56.343Z,53.20
2022-08-05T20:02:17.433Z,52.70
2022-08-05T20:04:48.302Z,52.90
2022-08-05T20:07:46.022Z,52.70
2022-08-05T20:10:13.263Z,53.00
2022-08-05T20:12:46.337Z,54.00
2022-08-05T20:15:48.125Z,53.20
2022-08-05T20:18:09.646Z,53.30
2022-08-05T20:20:49.243Z,53.20
2022-08-05T20:23:17.095Z,53.50
2022-08-05T20:25:47.988Z,53.80
2022-08-05T20:28:17.007Z,53.60
2022-08-05T20:30:44.877Z,53.70
2022-08-05T20:33:13.328Z,53.70
2022-08-05T20:35:45.555Z,53.80
2022-08-05T20:38:26.948Z,54.00
2022-08-05T20:40:56.383Z,54.10
2022-08-05T20:43:57.651Z,54.30
2022-08-05T20:46:18.593Z,54.40
2022-08-05T20:48:52.971Z,54.70
2022-08-05T20:51:22.623Z,55.00
2022-08-05T20:53:56.667Z,55.20
2022-08-05T20:56:27.658Z,55.30
2022-08-05T20:59:00.129Z,55.50
2022-08-05T21:01:42.417Z,55.60
2022-08-05T21:04:10.957Z,55.90
2022-08-05T21:06:45.483Z,56.40
2022-08-05T21:09:15.896Z,56.40
2022-08-05T21:12:08.977Z,56.70
2022-08-05T21:14:34.880Z,56.90
2022-08-05T21:17:04.946Z,57.20
2022-08-05T21:19:47.555Z,57.50
2022-08-05T21:22:21.805Z,57.50
2022-08-05T21:24:54.313Z,58.90
2022-08-05T21:27:25.295Z,59.80
2022-08-05T21:29:55.892Z,62.20
2022-08-05T21:32:24.452Z,62.80
2022-08-05T21:35:06.872Z,64.40
2022-08-05T21:37:42.583Z,65.30
2022-08-05T21:40:16.794Z,66.00
2022-08-05T21:42:47.645Z,66.60
2022-08-05T21:45:24.668Z,67.00
2022-08-05T21:47:55.774Z,67.70
2022-08-05T21:50:25.158Z,68.50
2022-08-05T21:52:53.069Z,68.80
2022-08-05T21:55:42.950Z,69.60
2022-08-05T21:58:11.785Z,70.20
2022-08-05T22:00:40.083Z,71.00
2022-08-05T22:03:09.994Z,71.40
2022-08-05T22:05:48.743Z,71.90
2022-08-05T22:08:22.267Z,72.40
2022-08-05T22:10:54.198Z,72.80
2022-08-05T22:14:06.168Z,72.80
2022-08-05T22:16:39.116Z,72.90
2022-08-05T22:18:58.738Z,73.30
2022-08-05T22:21:26.912Z,73.50
2022-08-05T22:24:39.621Z,73.70
2022-08-05T22:27:20.324Z,74.20
2022-08-05T22:29:48.172Z,74.50
2022-08-05T22:32:22.910Z,75.10
2022-08-05T22:34:50.952Z,75.70
2022-08-05T22:37:18.780Z,76.70
2022-08-05T22:39:50.405Z,76.70
2022-08-05T22:42:25.280Z,76.60
2022-08-05T22:44:57.006Z,77.30
2022-08-05T22:47:29.596Z,78.20
2022-08-05T22:50:17.597Z,81.70
2022-08-05T22:52:47.496Z,84.20
2022-08-05T22:55:18.638Z,87.80
2022-08-05T22:57:49.313Z,90.50
2022-08-05T23:00:20.873Z,92.40
2022-08-05T23:02:49.559Z,94.40
2022-08-05T23:05:17.692Z,97.50
2022-08-05T23:07:49.494Z,99.70
2022-08-05T23:10:20.116Z,99.90
2022-08-05T23:12:51.629Z,99.90
2022-08-05T23:15:26.974Z,99.90
2022-08-05T23:18:00.466Z,99.90
2022-08-05T23:20:31.041Z,99.90
2022-08-05T23:22:59.039Z,99.90
2022-08-05T23:25:52.763Z,99.90
2022-08-05T23:28:17.258Z,99.90
2022-08-05T23:30:53.124Z,99.90
2022-08-05T23:33:26.141Z,99.90
2022-08-05T23:36:10.664Z,99.90
2022-08-05T23:38:38.663Z,99.90
2022-08-05T23:41:06.753Z,99.90
2022-08-05T23:44:02.949Z,99.90
2022-08-05T23:46:24.055Z,99.90
2022-08-05T23:48:59.710Z,99.90
2022-08-05T23:51:52.603Z,99.90
2022-08-05T23:54:26.040Z,99.90
2022-08-05T23:56:55.191Z,99.90
2022-08-05T23:59:27.600Z,99.90
